createdAt,value
2018-04-08T00:04:12.537Z,66.70
2018-04-08T00:09:15.655Z,67.20
2018-04-08T00:14:18.750Z,68.40
2018-04-08T00:24:26.289Z,69.20
2018-04-08T00:29:30.537Z,69.00
2018-04-08T00:34:33.628Z,68.90
2018-04-08T00:44:41.968Z,70.00
2018-04-08T00:49:46.186Z,70.00
2018-04-08T00:54:50.780Z,70.30
2018-04-08T01:10:03.564Z,71.90
2018-04-08T01:15:06.645Z,70.60
2018-04-08T01:20:09.736Z,70.10
2018-04-08T01:25:12.819Z,71.10
2018-04-08T01:35:20.759Z,72.00
2018-04-08T01:40:23.857Z,72.00
2018-04-08T01:45:27.648Z,70.70
2018-04-08T01:50:30.762Z,67.10
2018-04-08T01:55:34.632Z,66.00
2018-04-08T02:00:37.715Z,63.10
2018-04-08T02:05:42.943Z,60.60
2018-04-08T02:15:50.483Z,58.70
2018-04-08T02:20:53.589Z,58.40
2018-04-08T02:25:57.457Z,57.80
2018-04-08T02:31:01.686Z,57.30
2018-04-08T02:36:04.781Z,57.20
2018-04-08T02:41:08.637Z,56.00
2018-04-08T02:46:11.750Z,58.00
2018-04-08T02:51:14.836Z,57.30
2018-04-08T02:56:18.714Z,57.80
2018-04-08T03:01:22.580Z,60.40
2018-04-08T03:06:26.810Z,61.00
2018-04-08T03:11:30.299Z,61.00
2018-04-08T03:26:44.260Z,63.80
2018-04-08T03:31:48.118Z,64.30
2018-04-08T03:36:51.213Z,64.90
2018-04-08T03:47:01.313Z,65.60
2018-04-08T03:52:05.916Z,66.60
2018-04-08T04:02:14.261Z,65.10
2018-04-08T04:07:18.502Z,62.50
2018-04-08T04:22:54.462Z,68.00
2018-04-08T04:33:03.148Z,66.40
2018-04-08T04:43:11.085Z,68.10
2018-04-08T04:48:14.186Z,68.30
2018-04-08T04:58:22.112Z,69.20
2018-04-08T05:03:25.983Z,69.70
2018-04-08T05:08:29.483Z,67.30
2018-04-08T05:13:32.969Z,64.00
2018-04-08T05:18:36.832Z,62.70
2018-04-08T05:28:45.145Z,60.90
2018-04-08T05:33:48.257Z,59.60
2018-04-08T05:38:51.345Z,58.10
2018-04-08T05:43:55.197Z,57.50
2018-04-08T05:48:58.310Z,60.50
2018-04-08T05:54:02.165Z,63.30
2018-04-08T05:59:06.031Z,63.60
2018-04-08T06:04:09.132Z,65.30
2018-04-08T06:09:13.731Z,66.60
2018-04-08T06:14:17.223Z,66.60
2018-04-08T06:19:20.329Z,63.90
2018-04-08T06:24:24.206Z,61.90
2018-04-08T06:29:28.449Z,59.90
2018-04-08T06:34:31.544Z,58.00
2018-04-08T06:39:35.040Z,56.70
2018-04-08T06:49:43.789Z,54.30
2018-04-08T06:59:51.317Z,47.30
2018-04-08T07:04:55.200Z,45.40
2018-04-08T07:09:59.791Z,45.50
2018-04-08T07:20:07.719Z,45.10
2018-04-08T07:25:11.955Z,43.60
2018-04-08T07:30:15.095Z,43.30
2018-04-08T07:35:19.366Z,44.20
2018-04-08T07:40:23.229Z,45.90
2018-04-08T07:45:27.470Z,45.30
2018-04-08T07:50:31.710Z,45.50
2018-04-08T08:05:44.432Z,44.50
2018-04-08T08:10:48.663Z,42.20
2018-04-08T08:15:51.756Z,41.70
2018-04-08T08:20:55.616Z,41.60
2018-04-08T08:25:59.476Z,41.90
2018-04-08T08:31:03.324Z,42.00
2018-04-08T08:36:06.417Z,41.10
2018-04-08T08:46:14.744Z,37.70
2018-04-08T08:56:23.050Z,36.50
2018-04-08T09:01:26.525Z,34.50
2018-04-08T09:11:35.650Z,33.00
2018-04-08T09:16:39.498Z,32.20
2018-04-08T09:21:52.492Z,30.60
2018-04-08T09:26:55.599Z,30.70
2018-04-08T09:31:58.743Z,31.10
2018-04-08T09:37:01.835Z,29.90
2018-04-08T09:42:04.925Z,29.60
2018-04-08T09:47:09.775Z,29.60
2018-04-08T09:52:13.624Z,29.80
2018-04-08T09:57:16.754Z,28.70
2018-04-08T10:07:59.022Z,29.90
2018-04-08T10:13:02.106Z,30.00
2018-04-08T10:18:05.199Z,29.70
2018-04-08T10:23:09.805Z,29.60
2018-04-08T10:38:21.793Z,32.40
2018-04-08T10:43:26.402Z,32.60
2018-04-08T10:53:34.695Z,32.40
2018-04-08T11:08:47.094Z,34.10
2018-04-08T11:23:59.481Z,34.10
2018-04-08T11:39:11.846Z,32.70
2018-04-08T11:54:23.827Z,33.00
2018-04-08T11:59:28.429Z,33.20
2018-04-08T12:04:32.291Z,33.40
2018-04-08T12:09:37.488Z,32.70
2018-04-08T12:14:41.336Z,34.20
2018-04-08T12:19:45.549Z,34.20
2018-04-08T12:24:50.139Z,32.60
2018-04-08T12:29:53.244Z,32.80
2018-04-08T12:34:57.097Z,32.30
2018-04-08T12:40:01.324Z,32.90
2018-04-08T12:45:05.540Z,32.40
2018-04-08T12:50:09.409Z,33.60
2018-04-08T12:55:13.825Z,33.30
2018-04-08T13:10:25.783Z,33.90
2018-04-08T13:15:29.606Z,33.50
2018-04-08T13:20:32.678Z,32.60
2018-04-08T13:30:40.205Z,32.20
2018-04-08T13:40:48.500Z,32.20
2018-04-08T13:45:51.589Z,32.50
2018-04-08T13:56:00.592Z,30.00
2018-04-08T14:01:04.818Z,30.20
2018-04-08T14:06:09.028Z,30.50
2018-04-08T14:11:12.509Z,28.90
2018-04-08T14:16:16.728Z,28.70
2018-04-08T14:21:20.208Z,29.90
2018-04-08T14:26:24.057Z,30.20
2018-04-08T14:31:28.652Z,29.20
2018-04-08T14:36:32.021Z,29.00
2018-04-08T14:41:35.097Z,29.80
2018-04-08T14:51:43.383Z,30.40
2018-04-08T14:56:47.978Z,30.90
2018-04-08T15:06:55.911Z,29.30
2018-04-08T15:11:59.785Z,30.50
2018-04-08T15:17:04.016Z,28.40
2018-04-08T15:22:07.852Z,28.80
2018-04-08T15:42:25.421Z,29.20
2018-04-08T15:47:28.906Z,28.40
2018-04-08T15:52:33.127Z,28.40
2018-04-08T16:07:46.262Z,28.80
2018-04-08T16:22:59.236Z,28.80
2018-04-08T16:28:03.452Z,28.50
2018-04-08T16:33:07.685Z,28.50
2018-04-08T16:43:16.697Z,28.40
2018-04-08T16:58:31.388Z,28.00
2018-04-08T17:03:34.884Z,28.10
2018-04-08T17:13:43.213Z,28.10
2018-04-08T17:18:46.277Z,28.30
2018-04-08T17:23:50.864Z,28.50
2018-04-08T17:28:53.964Z,29.00
2018-04-08T17:39:01.884Z,29.40
2018-04-08T17:54:15.394Z,32.70
2018-04-08T18:09:27.777Z,34.60
2018-04-08T18:14:31.264Z,33.90
2018-04-08T18:24:40.443Z,33.90
2018-04-08T18:34:47.961Z,35.50
2018-04-08T18:39:51.850Z,37.10
2018-04-08T18:44:55.700Z,38.70
2018-04-08T18:49:59.564Z,40.30
2018-04-08T18:55:04.157Z,41.10
2018-04-08T19:00:07.666Z,41.50
2018-04-08T19:10:15.981Z,42.40
2018-04-08T19:15:21.121Z,42.70
2018-04-08T19:20:25.712Z,42.60
2018-04-08T19:25:28.794Z,43.60
2018-04-08T19:30:31.885Z,44.20
2018-04-08T19:35:35.746Z,43.90
2018-04-08T19:40:38.860Z,43.80
2018-04-08T19:50:46.381Z,46.80
2018-04-08T19:55:50.596Z,48.60
2018-04-08T20:00:54.449Z,50.10
2018-04-08T20:05:58.683Z,51.60
2018-04-08T20:11:03.284Z,53.10
2018-04-08T20:16:06.781Z,52.50
2018-04-08T20:26:15.069Z,53.90
2018-04-08T20:31:18.964Z,54.40
2018-04-08T20:36:22.810Z,55.10
2018-04-08T20:41:27.417Z,56.40
2018-04-08T20:46:30.892Z,57.70
2018-04-08T20:51:34.385Z,58.60
2018-04-08T20:56:37.900Z,58.50
2018-04-08T21:01:41.753Z,59.50
2018-04-08T21:11:50.393Z,58.50
2018-04-08T21:16:53.870Z,57.50
2018-04-08T21:21:56.945Z,56.30
2018-04-08T21:27:00.044Z,55.20
2018-04-08T21:32:03.132Z,53.80
2018-04-08T21:42:11.417Z,53.60
2018-04-08T21:47:15.302Z,56.80
2018-04-08T21:52:18.388Z,58.60
2018-04-08T21:57:22.254Z,59.20
2018-04-08T22:02:25.342Z,60.30
2018-04-08T22:07:29.217Z,61.00
2018-04-08T22:12:32.273Z,61.40
2018-04-08T22:17:36.872Z,58.80
2018-04-08T22:22:39.959Z,56.80
2018-04-08T22:27:44.181Z,55.00
2018-04-08T22:32:48.041Z,54.80
2018-04-08T22:37:51.535Z,56.30
2018-04-08T22:42:54.626Z,57.10
2018-04-08T22:47:59.263Z,58.00
2018-04-08T22:58:08.275Z,59.70
2018-04-08T23:08:16.962Z,63.50
2018-04-08T23:13:21.182Z,64.40
2018-04-08T23:23:29.129Z,66.50
2018-04-08T23:28:32.612Z,67.40
2018-04-08T23:38:41.647Z,67.10
2018-04-08T23:48:49.577Z,68.10
2018-04-08T23:53:53.787Z,69.70
2018-04-08T23:58:57.641Z,70.50
